sensor_id;sensor_type;location;lat;lon;timestamp;temperature;humidity
70368;DHT22;57789;53.868;10.728;2023-05-14T00:01:54;11.50;99.90
70368;DHT22;57789;53.868;10.728;2023-05-14T00:04:21;11.40;99.90
70368;DHT22;57789;53.868;10.728;2023-05-14T00:06:47;11.40;99.90
70368;DHT22;57789;53.868;10.728;2023-05-14T00:09:13;11.40;99.90
70368;DHT22;57789;53.868;10.728;2023-05-14T00:11:39;11.40;99.90
70368;DHT22;57789;53.868;10.728;2023-05-14T00:14:05;11.30;99.90
70368;DHT22;57789;53.868;10.728;2023-05-14T00:16:30;11.30;99.90
70368;DHT22;57789;53.868;10.728;2023-05-14T00:18:56;11.20;99.90
70368;DHT22;57789;53.868;10.728;2023-05-14T00:21:22;11.20;99.90
70368;DHT22;57789;53.868;10.728;2023-05-14T00:23:48;11.00;99.90
70368;DHT22;57789;53.868;10.728;2023-05-14T00:26:13;11.00;99.90
70368;DHT22;57789;53.868;10.728;2023-05-14T00:28:39;11.10;99.90
70368;DHT22;57789;53.868;10.728;2023-05-14T00:31:05;11.10;99.90
70368;DHT22;57789;53.868;10.728;2023-05-14T00:33:31;11.10;99.90
70368;DHT22;57789;53.868;10.728;2023-05-14T00:35:56;11.20;99.90
70368;DHT22;57789;53.868;10.728;2023-05-14T00:38:22;11.10;99.90
70368;DHT22;57789;53.868;10.728;2023-05-14T00:40:48;11.00;99.90
70368;DHT22;57789;53.868;10.728;2023-05-14T00:43:20;11.00;99.90
70368;DHT22;57789;53.868;10.728;2023-05-14T00:45:49;11.00;99.90
70368;DHT22;57789;53.868;10.728;2023-05-14T00:48:15;11.10;99.90
70368;DHT22;57789;53.868;10.728;2023-05-14T00:50:41;11.00;99.90
70368;DHT22;57789;53.868;10.728;2023-05-14T00:53:08;11.10;99.90
70368;DHT22;57789;53.868;10.728;2023-05-14T00:55:39;11.10;99.90
70368;DHT22;57789;53.868;10.728;2023-05-14T00:58:12;11.10;99.90
70368;DHT22;57789;53.868;10.728;2023-05-14T01:00:39;11.00;99.90
70368;DHT22;57789;53.868;10.728;2023-05-14T01:03:06;10.90;99.90
70368;DHT22;57789;53.868;10.728;2023-05-14T01:11:28;10.70;99.90
70368;DHT22;57789;53.868;10.728;2023-05-14T01:16:32;10.70;99.90
70368;DHT22;57789;53.868;10.728;2023-05-14T01:18:59;10.70;99.90
70368;DHT22;57789;53.868;10.728;2023-05-14T01:21:38;10.70;99.90
70368;DHT22;57789;53.868;10.728;2023-05-14T01:24:06;10.70;99.90
70368;DHT22;57789;53.868;10.728;2023-05-14T01:26:32;10.70;99.90
70368;DHT22;57789;53.868;10.728;2023-05-14T01:29:11;10.60;99.90
70368;DHT22;57789;53.868;10.728;2023-05-14T01:31:39;10.70;99.90
70368;DHT22;57789;53.868;10.728;2023-05-14T01:34:08;10.70;99.90
70368;DHT22;57789;53.868;10.728;2023-05-14T01:36:35;10.70;99.90
70368;DHT22;57789;53.868;10.728;2023-05-14T01:39:01;10.60;99.90
70368;DHT22;57789;53.868;10.728;2023-05-14T01:41:28;10.60;99.90
70368;DHT22;57789;53.868;10.728;2023-05-14T01:43:56;10.60;99.90
70368;DHT22;57789;53.868;10.728;2023-05-14T01:46:22;10.60;99.90
70368;DHT22;57789;53.868;10.728;2023-05-14T01:48:49;10.50;99.90
70368;DHT22;57789;53.868;10.728;2023-05-14T01:51:15;10.50;99.90
70368;DHT22;57789;53.868;10.728;2023-05-14T01:53:41;10.40;99.90
70368;DHT22;57789;53.868;10.728;2023-05-14T01:56:06;10.30;99.90
70368;DHT22;57789;53.868;10.728;2023-05-14T01:58:32;10.30;99.90
70368;DHT22;57789;53.868;10.728;2023-05-14T02:00:58;10.20;99.90
70368;DHT22;57789;53.868;10.728;2023-05-14T02:03:23;10.20;99.90
70368;DHT22;57789;53.868;10.728;2023-05-14T02:05:49;10.00;99.90
70368;DHT22;57789;53.868;10.728;2023-05-14T02:08:15;10.00;99.90
70368;DHT22;57789;53.868;10.728;2023-05-14T02:10:41;10.00;99.90
70368;DHT22;57789;53.868;10.728;2023-05-14T02:13:07;10.00;99.90
70368;DHT22;57789;53.868;10.728;2023-05-14T02:15:34;10.00;99.90
70368;DHT22;57789;53.868;10.728;2023-05-14T02:17:59;10.00;99.90
70368;DHT22;57789;53.868;10.728;2023-05-14T02:20:25;10.00;99.90
70368;DHT22;57789;53.868;10.728;2023-05-14T02:22:51;10.00;99.90
70368;DHT22;57789;53.868;10.728;2023-05-14T02:25:17;9.80;99.90
70368;DHT22;57789;53.868;10.728;2023-05-14T02:27:43;9.80;99.90
70368;DHT22;57789;53.868;10.728;2023-05-14T02:30:09;9.90;99.90
70368;DHT22;57789;53.868;10.728;2023-05-14T02:32:35;9.80;99.90
70368;DHT22;57789;53.868;10.728;2023-05-14T02:35:01;9.80;99.90
70368;DHT22;57789;53.868;10.728;2023-05-14T02:37:27;9.70;99.90
70368;DHT22;57789;53.868;10.728;2023-05-14T02:39:53;9.70;99.90
70368;DHT22;57789;53.868;10.728;2023-05-14T02:42:18;9.60;99.90
70368;DHT22;57789;53.868;10.728;2023-05-14T02:44:44;9.50;99.90
70368;DHT22;57789;53.868;10.728;2023-05-14T02:47:11;9.50;99.90
70368;DHT22;57789;53.868;10.728;2023-05-14T02:49:37;9.50;99.90
70368;DHT22;57789;53.868;10.728;2023-05-14T02:52:02;9.40;99.90
70368;DHT22;57789;53.868;10.728;2023-05-14T02:54:28;9.40;99.90
70368;DHT22;57789;53.868;10.728;2023-05-14T02:56:54;9.40;99.90
70368;DHT22;57789;53.868;10.728;2023-05-14T02:59:21;9.30;99.90
70368;DHT22;57789;53.868;10.728;2023-05-14T03:01:48;9.30;99.90
70368;DHT22;57789;53.868;10.728;2023-05-14T03:04:13;9.30;99.90
70368;DHT22;57789;53.868;10.728;2023-05-14T03:06:39;9.30;99.90
70368;DHT22;57789;53.868;10.728;2023-05-14T03:09:05;9.30;99.90
70368;DHT22;57789;53.868;10.728;2023-05-14T03:11:32;9.30;99.90
70368;DHT22;57789;53.868;10.728;2023-05-14T03:13:57;9.30;99.90
70368;DHT22;57789;53.868;10.728;2023-05-14T03:16:23;9.20;99.90
70368;DHT22;57789;53.868;10.728;2023-05-14T03:18:49;9.20;99.90
70368;DHT22;57789;53.868;10.728;2023-05-14T03:21:14;9.20;99.90
70368;DHT22;57789;53.868;10.728;2023-05-14T03:23:40;9.10;99.90
70368;DHT22;57789;53.868;10.728;2023-05-14T03:26:06;9.10;99.90
70368;DHT22;57789;53.868;10.728;2023-05-14T03:28:32;9.00;99.90
70368;DHT22;57789;53.868;10.728;2023-05-14T03:30:58;9.00;99.90
70368;DHT22;57789;53.868;10.728;2023-05-14T03:33:24;9.00;99.90
70368;DHT22;57789;53.868;10.728;2023-05-14T03:35:50;9.00;99.90
70368;DHT22;57789;53.868;10.728;2023-05-14T03:38:16;9.00;99.90
70368;DHT22;57789;53.868;10.728;2023-05-14T03:40:43;9.00;99.90
70368;DHT22;57789;53.868;10.728;2023-05-14T03:43:09;9.10;99.90
70368;DHT22;57789;53.868;10.728;2023-05-14T03:45:36;9.00;99.90
70368;DHT22;57789;53.868;10.728;2023-05-14T03:48:01;9.00;99.90
70368;DHT22;57789;53.868;10.728;2023-05-14T03:50:27;8.90;99.90
70368;DHT22;57789;53.868;10.728;2023-05-14T03:52:53;9.00;99.90
70368;DHT22;57789;53.868;10.728;2023-05-14T03:55:20;8.90;99.90
70368;DHT22;57789;53.868;10.728;2023-05-14T03:57:47;8.90;99.90
70368;DHT22;57789;53.868;10.728;2023-05-14T04:00:13;8.90;99.90
70368;DHT22;57789;53.868;10.728;2023-05-14T04:02:39;9.00;99.90
70368;DHT22;57789;53.868;10.728;2023-05-14T04:05:05;9.10;99.90
70368;DHT22;57789;53.868;10.728;2023-05-14T04:07:30;9.20;99.90
70368;DHT22;57789;53.868;10.728;2023-05-14T04:09:56;9.30;99.90
70368;DHT22;57789;53.868;10.728;2023-05-14T04:12:22;9.30;99.90
70368;DHT22;57789;53.868;10.728;2023-05-14T04:14:47;9.30;99.90
70368;DHT22;57789;53.868;10.728;2023-05-14T04:17:13;9.30;99.90
70368;DHT22;57789;53.868;10.728;2023-05-14T04:19:39;9.30;99.90
70368;DHT22;57789;53.868;10.728;2023-05-14T04:22:05;9.30;99.90
70368;DHT22;57789;53.868;10.728;2023-05-14T04:24:30;9.40;99.90
70368;DHT22;57789;53.868;10.728;2023-05-14T04:26:56;9.40;99.90
70368;DHT22;57789;53.868;10.728;2023-05-14T04:29:22;9.40;99.90
70368;DHT22;57789;53.868;10.728;2023-05-14T04:31:50;9.40;99.90
70368;DHT22;57789;53.868;10.728;2023-05-14T04:34:16;9.50;99.90
70368;DHT22;57789;53.868;10.728;2023-05-14T04:36:42;9.50;99.90
70368;DHT22;57789;53.868;10.728;2023-05-14T04:39:07;9.50;99.90
70368;DHT22;57789;53.868;10.728;2023-05-14T04:41:37;9.70;99.90
70368;DHT22;57789;53.868;10.728;2023-05-14T04:44:03;9.80;99.90
70368;DHT22;57789;53.868;10.728;2023-05-14T04:46:28;9.90;99.90
70368;DHT22;57789;53.868;10.728;2023-05-14T04:48:54;10.00;99.90
70368;DHT22;57789;53.868;10.728;2023-05-14T04:51:21;10.10;99.90
70368;DHT22;57789;53.868;10.728;2023-05-14T04:53:47;10.20;99.90
70368;DHT22;57789;53.868;10.728;2023-05-14T04:56:13;10.20;99.90
70368;DHT22;57789;53.868;10.728;2023-05-14T04:58:38;10.30;99.90
70368;DHT22;57789;53.868;10.728;2023-05-14T05:01:04;10.30;99.90
70368;DHT22;57789;53.868;10.728;2023-05-14T05:03:30;10.30;99.90
70368;DHT22;57789;53.868;10.728;2023-05-14T05:05:56;10.40;99.90
70368;DHT22;57789;53.868;10.728;2023-05-14T05:08:22;10.50;99.90
70368;DHT22;57789;53.868;10.728;2023-05-14T05:10:48;10.60;99.90
70368;DHT22;57789;53.868;10.728;2023-05-14T05:13:14;10.70;99.90
70368;DHT22;57789;53.868;10.728;2023-05-14T05:15:42;10.80;99.90
70368;DHT22;57789;53.868;10.728;2023-05-14T05:18:08;10.90;99.90
70368;DHT22;57789;53.868;10.728;2023-05-14T05:20:33;11.00;99.90
70368;DHT22;57789;53.868;10.728;2023-05-14T05:22:59;11.10;99.90
70368;DHT22;57789;53.868;10.728;2023-05-14T05:25:25;11.20;99.90
70368;DHT22;57789;53.868;10.728;2023-05-14T05:27:51;11.40;99.90
70368;DHT22;57789;53.868;10.728;2023-05-14T05:30:17;11.40;99.90
70368;DHT22;57789;53.868;10.728;2023-05-14T05:32:43;11.50;99.90
70368;DHT22;57789;53.868;10.728;2023-05-14T05:35:09;11.60;99.90
70368;DHT22;57789;53.868;10.728;2023-05-14T05:37:35;11.70;99.90
70368;DHT22;57789;53.868;10.728;2023-05-14T05:40:01;11.80;99.90
70368;DHT22;57789;53.868;10.728;2023-05-14T05:42:28;11.90;99.90
70368;DHT22;57789;53.868;10.728;2023-05-14T05:44:54;12.00;99.90
70368;DHT22;57789;53.868;10.728;2023-05-14T05:47:20;12.10;99.90
70368;DHT22;57789;53.868;10.728;2023-05-14T05:49:46;12.20;99.90
70368;DHT22;57789;53.868;10.728;2023-05-14T05:52:12;12.30;99.90
70368;DHT22;57789;53.868;10.728;2023-05-14T05:54:38;12.50;99.90
70368;DHT22;57789;53.868;10.728;2023-05-14T05:57:04;12.60;99.90
70368;DHT22;57789;53.868;10.728;2023-05-14T05:59:30;12.80;99.90
70368;DHT22;57789;53.868;10.728;2023-05-14T06:01:56;12.90;99.90
70368;DHT22;57789;53.868;10.728;2023-05-14T06:04:21;13.00;99.90
70368;DHT22;57789;53.868;10.728;2023-05-14T06:06:47;13.10;99.90
70368;DHT22;57789;53.868;10.728;2023-05-14T06:09:13;13.30;99.90
70368;DHT22;57789;53.868;10.728;2023-05-14T06:11:39;13.40;99.90
70368;DHT22;57789;53.868;10.728;2023-05-14T06:14:05;13.50;99.90
70368;DHT22;57789;53.868;10.728;2023-05-14T06:16:30;13.70;99.90
70368;DHT22;57789;53.868;10.728;2023-05-14T06:18:56;13.80;99.90
70368;DHT22;57789;53.868;10.728;2023-05-14T06:21:22;13.90;99.90
70368;DHT22;57789;53.868;10.728;2023-05-14T06:23:47;14.00;99.90
70368;DHT22;57789;53.868;10.728;2023-05-14T06:26:13;14.20;99.90
70368;DHT22;57789;53.868;10.728;2023-05-14T06:28:39;14.40;99.90
70368;DHT22;57789;53.868;10.728;2023-05-14T06:31:05;14.50;99.90
70368;DHT22;57789;53.868;10.728;2023-05-14T06:33:30;14.60;99.90
70368;DHT22;57789;53.868;10.728;2023-05-14T06:36:02;14.70;99.90
70368;DHT22;57789;53.868;10.728;2023-05-14T06:38:28;14.80;99.90
70368;DHT22;57789;53.868;10.728;2023-05-14T06:40:53;15.00;99.90
70368;DHT22;57789;53.868;10.728;2023-05-14T06:43:19;15.00;99.90
70368;DHT22;57789;53.868;10.728;2023-05-14T06:45:49;15.20;99.90
70368;DHT22;57789;53.868;10.728;2023-05-14T06:48:15;15.30;99.90
70368;DHT22;57789;53.868;10.728;2023-05-14T06:50:46;15.40;99.90
70368;DHT22;57789;53.868;10.728;2023-05-14T06:53:12;15.50;99.90
70368;DHT22;57789;53.868;10.728;2023-05-14T06:55:38;15.70;99.90
70368;DHT22;57789;53.868;10.728;2023-05-14T06:58:08;15.80;99.90
70368;DHT22;57789;53.868;10.728;2023-05-14T07:00:34;16.00;99.90
70368;DHT22;57789;53.868;10.728;2023-05-14T07:03:00;16.20;99.90
70368;DHT22;57789;53.868;10.728;2023-05-14T07:05:25;16.30;99.90
70368;DHT22;57789;53.868;10.728;2023-05-14T07:07:51;16.40;99.90
70368;DHT22;57789;53.868;10.728;2023-05-14T07:10:17;16.60;99.90
70368;DHT22;57789;53.868;10.728;2023-05-14T07:12:43;16.60;99.90
70368;DHT22;57789;53.868;10.728;2023-05-14T07:15:09;16.70;99.90
70368;DHT22;57789;53.868;10.728;2023-05-14T07:17:34;16.90;99.90
70368;DHT22;57789;53.868;10.728;2023-05-14T07:20:00;17.00;99.90
70368;DHT22;57789;53.868;10.728;2023-05-14T07:22:26;17.10;99.90
70368;DHT22;57789;53.868;10.728;2023-05-14T07:24:52;17.20;99.90
70368;DHT22;57789;53.868;10.728;2023-05-14T07:27:17;17.30;99.90
70368;DHT22;57789;53.868;10.728;2023-05-14T07:29:43;17.50;99.90
70368;DHT22;57789;53.868;10.728;2023-05-14T07:32:09;17.60;99.90
70368;DHT22;57789;53.868;10.728;2023-05-14T07:34:35;17.60;99.90
70368;DHT22;57789;53.868;10.728;2023-05-14T07:37:00;17.70;99.90
70368;DHT22;57789;53.868;10.728;2023-05-14T07:39:26;17.80;99.90
70368;DHT22;57789;53.868;10.728;2023-05-14T07:41:52;17.80;99.90
70368;DHT22;57789;53.868;10.728;2023-05-14T07:44:21;17.90;99.90
70368;DHT22;57789;53.868;10.728;2023-05-14T07:46:47;18.00;99.90
70368;DHT22;57789;53.868;10.728;2023-05-14T07:49:12;18.10;99.90
70368;DHT22;57789;53.868;10.728;2023-05-14T07:51:38;18.20;99.90
70368;DHT22;57789;53.868;10.728;2023-05-14T07:54:04;18.30;99.90
70368;DHT22;57789;53.868;10.728;2023-05-14T07:56:30;18.40;99.90
70368;DHT22;57789;53.868;10.728;2023-05-14T07:58:56;18.50;99.90
70368;DHT22;57789;53.868;10.728;2023-05-14T08:01:24;18.60;99.90
70368;DHT22;57789;53.868;10.728;2023-05-14T08:03:50;18.70;99.90
70368;DHT22;57789;53.868;10.728;2023-05-14T08:06:16;18.70;99.90
70368;DHT22;57789;53.868;10.728;2023-05-14T08:08:42;18.80;99.90
70368;DHT22;57789;53.868;10.728;2023-05-14T08:11:08;18.90;99.90
70368;DHT22;57789;53.868;10.728;2023-05-14T08:13:34;19.00;99.90
70368;DHT22;57789;53.868;10.728;2023-05-14T08:16:00;19.10;99.90
70368;DHT22;57789;53.868;10.728;2023-05-14T08:18:25;19.10;99.90
70368;DHT22;57789;53.868;10.728;2023-05-14T08:20:51;19.20;99.90
70368;DHT22;57789;53.868;10.728;2023-05-14T08:23:17;19.30;99.90
70368;DHT22;57789;53.868;10.728;2023-05-14T08:25:43;19.40;99.90
70368;DHT22;57789;53.868;10.728;2023-05-14T08:28:09;19.60;99.90
70368;DHT22;57789;53.868;10.728;2023-05-14T08:30:37;19.60;99.90
70368;DHT22;57789;53.868;10.728;2023-05-14T08:33:02;19.60;99.90
70368;DHT22;57789;53.868;10.728;2023-05-14T08:35:28;19.70;99.90
70368;DHT22;57789;53.868;10.728;2023-05-14T08:37:54;19.70;99.90
70368;DHT22;57789;53.868;10.728;2023-05-14T08:40:21;19.80;99.90
70368;DHT22;57789;53.868;10.728;2023-05-14T08:42:47;20.00;99.90
70368;DHT22;57789;53.868;10.728;2023-05-14T08:45:17;20.10;99.90
70368;DHT22;57789;53.868;10.728;2023-05-14T08:47:50;20.20;99.90
70368;DHT22;57789;53.868;10.728;2023-05-14T08:50:16;20.30;97.20
70368;DHT22;57789;53.868;10.728;2023-05-14T08:52:44;20.40;98.70
70368;DHT22;57789;53.868;10.728;2023-05-14T08:55:11;20.50;98.60
70368;DHT22;57789;53.868;10.728;2023-05-14T08:57:37;20.60;97.50
70368;DHT22;57789;53.868;10.728;2023-05-14T09:00:04;20.60;96.90
70368;DHT22;57789;53.868;10.728;2023-05-14T09:02:34;20.80;94.50
70368;DHT22;57789;53.868;10.728;2023-05-14T09:05:01;20.90;95.80
70368;DHT22;57789;53.868;10.728;2023-05-14T09:07:28;21.00;94.90
70368;DHT22;57789;53.868;10.728;2023-05-14T09:09:54;21.20;93.80
70368;DHT22;57789;53.868;10.728;2023-05-14T09:12:20;21.20;91.30
70368;DHT22;57789;53.868;10.728;2023-05-14T09:14:48;21.40;91.80
70368;DHT22;57789;53.868;10.728;2023-05-14T09:17:14;21.50;90.20
70368;DHT22;57789;53.868;10.728;2023-05-14T09:19:40;21.60;89.10
70368;DHT22;57789;53.868;10.728;2023-05-14T09:22:14;21.70;90.50
70368;DHT22;57789;53.868;10.728;2023-05-14T09:24:40;21.80;90.30
70368;DHT22;57789;53.868;10.728;2023-05-14T09:27:08;22.10;87.40
70368;DHT22;57789;53.868;10.728;2023-05-14T09:29:34;22.20;90.50
70368;DHT22;57789;53.868;10.728;2023-05-14T09:32:01;22.40;88.30
70368;DHT22;57789;53.868;10.728;2023-05-14T09:34:34;22.40;88.60
70368;DHT22;57789;53.868;10.728;2023-05-14T09:37:04;22.50;87.90
70368;DHT22;57789;53.868;10.728;2023-05-14T09:39:31;22.40;84.20
70368;DHT22;57789;53.868;10.728;2023-05-14T09:41:57;22.40;82.10
70368;DHT22;57789;53.868;10.728;2023-05-14T09:44:24;22.40;80.80
70368;DHT22;57789;53.868;10.728;2023-05-14T09:46:50;22.40;77.50
70368;DHT22;57789;53.868;10.728;2023-05-14T09:49:17;22.50;81.20
70368;DHT22;57789;53.868;10.728;2023-05-14T09:51:43;22.50;77.30
70368;DHT22;57789;53.868;10.728;2023-05-14T09:54:09;22.50;71.40
70368;DHT22;57789;53.868;10.728;2023-05-14T09:56:35;22.50;69.80
70368;DHT22;57789;53.868;10.728;2023-05-14T09:59:02;22.30;72.30
70368;DHT22;57789;53.868;10.728;2023-05-14T10:01:29;22.40;71.40
70368;DHT22;57789;53.868;10.728;2023-05-14T10:03:55;22.30;72.60
70368;DHT22;57789;53.868;10.728;2023-05-14T10:06:27;22.30;72.80
70368;DHT22;57789;53.868;10.728;2023-05-14T10:08:56;22.30;72.40
70368;DHT22;57789;53.868;10.728;2023-05-14T10:11:25;22.30;73.30
70368;DHT22;57789;53.868;10.728;2023-05-14T10:14:02;22.30;75.10
70368;DHT22;57789;53.868;10.728;2023-05-14T10:16:35;22.20;68.50
70368;DHT22;57789;53.868;10.728;2023-05-14T10:19:08;22.30;69.90
70368;DHT22;57789;53.868;10.728;2023-05-14T10:21:36;22.40;70.80
70368;DHT22;57789;53.868;10.728;2023-05-14T10:24:03;22.50;68.70
70368;DHT22;57789;53.868;10.728;2023-05-14T10:26:37;22.50;68.80
70368;DHT22;57789;53.868;10.728;2023-05-14T10:29:04;22.50;70.50
70368;DHT22;57789;53.868;10.728;2023-05-14T10:31:50;22.50;67.70
70368;DHT22;57789;53.868;10.728;2023-05-14T10:34:41;22.60;67.90
70368;DHT22;57789;53.868;10.728;2023-05-14T10:37:25;22.70;66.30
70368;DHT22;57789;53.868;10.728;2023-05-14T10:39:52;22.80;64.50
70368;DHT22;57789;53.868;10.728;2023-05-14T10:42:25;22.80;62.80
70368;DHT22;57789;53.868;10.728;2023-05-14T10:45:00;22.80;62.40
70368;DHT22;57789;53.868;10.728;2023-05-14T10:47:30;22.80;64.40
70368;DHT22;57789;53.868;10.728;2023-05-14T10:50:01;22.80;60.40
70368;DHT22;57789;53.868;10.728;2023-05-14T10:52:28;22.70;60.90
70368;DHT22;57789;53.868;10.728;2023-05-14T10:55:07;22.70;60.70
70368;DHT22;57789;53.868;10.728;2023-05-14T10:57:35;23.00;61.40
70368;DHT22;57789;53.868;10.728;2023-05-14T11:00:01;23.20;60.20
70368;DHT22;57789;53.868;10.728;2023-05-14T11:02:33;23.40;60.20
70368;DHT22;57789;53.868;10.728;2023-05-14T11:05:07;23.60;62.00
70368;DHT22;57789;53.868;10.728;2023-05-14T11:07:34;24.00;62.00
70368;DHT22;57789;53.868;10.728;2023-05-14T11:10:08;24.30;58.80
70368;DHT22;57789;53.868;10.728;2023-05-14T11:12:39;24.20;57.80
70368;DHT22;57789;53.868;10.728;2023-05-14T11:15:10;24.30;60.10
70368;DHT22;57789;53.868;10.728;2023-05-14T11:17:37;24.50;59.00
70368;DHT22;57789;53.868;10.728;2023-05-14T11:20:03;24.80;55.20
70368;DHT22;57789;53.868;10.728;2023-05-14T11:22:30;24.90;55.50
70368;DHT22;57789;53.868;10.728;2023-05-14T11:24:56;25.10;55.10
70368;DHT22;57789;53.868;10.728;2023-05-14T11:27:22;25.00;55.10
70368;DHT22;57789;53.868;10.728;2023-05-14T11:29:49;25.00;54.60
70368;DHT22;57789;53.868;10.728;2023-05-14T11:32:15;25.20;54.90
70368;DHT22;57789;53.868;10.728;2023-05-14T11:34:43;25.30;52.60
70368;DHT22;57789;53.868;10.728;2023-05-14T11:37:09;25.10;52.80
70368;DHT22;57789;53.868;10.728;2023-05-14T11:39:37;25.00;52.80
70368;DHT22;57789;53.868;10.728;2023-05-14T11:42:09;25.00;53.20
70368;DHT22;57789;53.868;10.728;2023-05-14T11:44:37;25.10;53.00
70368;DHT22;57789;53.868;10.728;2023-05-14T11:47:03;25.40;53.90
70368;DHT22;57789;53.868;10.728;2023-05-14T11:49:29;25.50;51.70
70368;DHT22;57789;53.868;10.728;2023-05-14T11:52:01;25.30;51.70
70368;DHT22;57789;53.868;10.728;2023-05-14T11:54:31;25.00;51.00
70368;DHT22;57789;53.868;10.728;2023-05-14T11:56:59;24.70;51.10
70368;DHT22;57789;53.868;10.728;2023-05-14T11:59:31;24.40;53.10
70368;DHT22;57789;53.868;10.728;2023-05-14T12:02:01;24.10;53.20
70368;DHT22;57789;53.868;10.728;2023-05-14T12:04:28;24.10;53.60
70368;DHT22;57789;53.868;10.728;2023-05-14T12:06:56;23.90;54.40
70368;DHT22;57789;53.868;10.728;2023-05-14T12:09:22;23.70;54.70
70368;DHT22;57789;53.868;10.728;2023-05-14T12:11:49;23.60;56.20
70368;DHT22;57789;53.868;10.728;2023-05-14T12:14:18;23.70;56.20
70368;DHT22;57789;53.868;10.728;2023-05-14T12:16:44;23.60;60.30
70368;DHT22;57789;53.868;10.728;2023-05-14T12:19:14;23.60;66.80
70368;DHT22;57789;53.868;10.728;2023-05-14T12:21:42;24.20;70.90
70368;DHT22;57789;53.868;10.728;2023-05-14T12:24:10;24.40;71.00
70368;DHT22;57789;53.868;10.728;2023-05-14T12:26:36;24.30;72.10
70368;DHT22;57789;53.868;10.728;2023-05-14T12:29:05;23.80;74.00
70368;DHT22;57789;53.868;10.728;2023-05-14T12:31:34;23.40;76.50
70368;DHT22;57789;53.868;10.728;2023-05-14T12:34:01;23.10;75.70
70368;DHT22;57789;53.868;10.728;2023-05-14T12:36:28;22.70;78.50
70368;DHT22;57789;53.868;10.728;2023-05-14T12:39:00;22.50;80.80
70368;DHT22;57789;53.868;10.728;2023-05-14T12:41:26;22.20;81.80
70368;DHT22;57789;53.868;10.728;2023-05-14T12:43:52;21.90;86.00
70368;DHT22;57789;53.868;10.728;2023-05-14T12:46:18;21.90;87.40
70368;DHT22;57789;53.868;10.728;2023-05-14T12:48:44;22.10;78.50
70368;DHT22;57789;53.868;10.728;2023-05-14T12:51:10;22.60;83.20
70368;DHT22;57789;53.868;10.728;2023-05-14T12:53:36;23.10;80.90
70368;DHT22;57789;53.868;10.728;2023-05-14T12:56:02;23.30;79.10
70368;DHT22;57789;53.868;10.728;2023-05-14T12:58:28;23.50;77.20
70368;DHT22;57789;53.868;10.728;2023-05-14T13:00:54;23.60;77.10
70368;DHT22;57789;53.868;10.728;2023-05-14T13:03:21;23.90;77.90
70368;DHT22;57789;53.868;10.728;2023-05-14T13:05:46;23.90;76.90
70368;DHT22;57789;53.868;10.728;2023-05-14T13:08:12;24.20;80.70
70368;DHT22;57789;53.868;10.728;2023-05-14T13:10:45;24.20;80.00
70368;DHT22;57789;53.868;10.728;2023-05-14T13:13:11;24.50;77.60
70368;DHT22;57789;53.868;10.728;2023-05-14T13:15:37;24.60;75.10
70368;DHT22;57789;53.868;10.728;2023-05-14T13:18:03;24.60;73.60
70368;DHT22;57789;53.868;10.728;2023-05-14T13:20:29;24.50;75.90
70368;DHT22;57789;53.868;10.728;2023-05-14T13:22:56;24.50;75.90
70368;DHT22;57789;53.868;10.728;2023-05-14T13:25:22;24.40;76.50
70368;DHT22;57789;53.868;10.728;2023-05-14T13:27:48;24.30;73.80
70368;DHT22;57789;53.868;10.728;2023-05-14T13:30:20;24.20;75.90
70368;DHT22;57789;53.868;10.728;2023-05-14T13:32:46;24.10;72.90
70368;DHT22;57789;53.868;10.728;2023-05-14T13:35:12;24.30;71.30
70368;DHT22;57789;53.868;10.728;2023-05-14T13:37:38;24.40;68.50
70368;DHT22;57789;53.868;10.728;2023-05-14T13:40:04;24.40;69.70
70368;DHT22;57789;53.868;10.728;2023-05-14T13:42:36;24.40;71.00
70368;DHT22;57789;53.868;10.728;2023-05-14T13:45:04;24.30;70.00
70368;DHT22;57789;53.868;10.728;2023-05-14T13:47:30;24.10;70.10
70368;DHT22;57789;53.868;10.728;2023-05-14T13:49:57;24.20;73.00
70368;DHT22;57789;53.868;10.728;2023-05-14T13:52:23;24.10;75.70
70368;DHT22;57789;53.868;10.728;2023-05-14T13:54:49;24.10;73.60
70368;DHT22;57789;53.868;10.728;2023-05-14T13:57:15;24.20;70.00
70368;DHT22;57789;53.868;10.728;2023-05-14T13:59:41;24.30;71.40
70368;DHT22;57789;53.868;10.728;2023-05-14T14:02:07;24.60;72.10
70368;DHT22;57789;53.868;10.728;2023-05-14T14:04:36;24.50;72.40
70368;DHT22;57789;53.868;10.728;2023-05-14T14:07:02;24.30;71.90
70368;DHT22;57789;53.868;10.728;2023-05-14T14:09:28;24.10;73.50
70368;DHT22;57789;53.868;10.728;2023-05-14T14:11:53;24.10;75.80
70368;DHT22;57789;53.868;10.728;2023-05-14T14:14:19;24.10;76.40
70368;DHT22;57789;53.868;10.728;2023-05-14T14:16:45;24.10;72.80
70368;DHT22;57789;53.868;10.728;2023-05-14T14:19:11;24.30;70.40
70368;DHT22;57789;53.868;10.728;2023-05-14T14:21:36;24.60;68.80
70368;DHT22;57789;53.868;10.728;2023-05-14T14:24:07;24.70;67.50
70368;DHT22;57789;53.868;10.728;2023-05-14T14:26:33;25.20;66.00
70368;DHT22;57789;53.868;10.728;2023-05-14T14:28:58;26.00;65.50
70368;DHT22;57789;53.868;10.728;2023-05-14T14:31:24;26.50;59.20
70368;DHT22;57789;53.868;10.728;2023-05-14T14:33:50;27.00;57.70
70368;DHT22;57789;53.868;10.728;2023-05-14T14:36:16;27.60;54.10
70368;DHT22;57789;53.868;10.728;2023-05-14T14:38:41;28.60;53.30
70368;DHT22;57789;53.868;10.728;2023-05-14T14:41:08;29.70;50.60
70368;DHT22;57789;53.868;10.728;2023-05-14T14:43:36;29.80;49.60
70368;DHT22;57789;53.868;10.728;2023-05-14T14:46:02;30.90;43.90
70368;DHT22;57789;53.868;10.728;2023-05-14T14:48:32;31.80;43.80
70368;DHT22;57789;53.868;10.728;2023-05-14T14:51:02;32.50;41.70
70368;DHT22;57789;53.868;10.728;2023-05-14T14:53:28;33.00;39.20
70368;DHT22;57789;53.868;10.728;2023-05-14T14:55:55;32.10;38.30
70368;DHT22;57789;53.868;10.728;2023-05-14T14:58:21;30.90;39.00
70368;DHT22;57789;53.868;10.728;2023-05-14T15:00:55;29.70;40.00
70368;DHT22;57789;53.868;10.728;2023-05-14T15:03:21;28.90;42.30
70368;DHT22;57789;53.868;10.728;2023-05-14T15:05:48;28.30;43.70
70368;DHT22;57789;53.868;10.728;2023-05-14T15:08:14;27.90;45.50
70368;DHT22;57789;53.868;10.728;2023-05-14T15:10:40;27.30;47.50
70368;DHT22;57789;53.868;10.728;2023-05-14T15:13:07;26.90;49.80
70368;DHT22;57789;53.868;10.728;2023-05-14T15:15:34;27.30;50.90
70368;DHT22;57789;53.868;10.728;2023-05-14T15:18:00;27.80;49.90
70368;DHT22;57789;53.868;10.728;2023-05-14T15:20:26;28.50;49.70
70368;DHT22;57789;53.868;10.728;2023-05-14T15:22:52;29.50;49.30
70368;DHT22;57789;53.868;10.728;2023-05-14T15:25:21;30.30;47.20